Chicago, Illinois
Traffic Map
Current Weather Conditions
Chicago, Illinois
Overcast
Overcast
-6°
Feels Like: -12°
Wind Chill: -12° Ceiling: 12000
Heat Index: -6° Visibility: 9mi
Dew Point: -11° Wind: 9mph
Humidity: 68% Direction: 250° (WSW)
Pressure: 30.51in Gusts: 0mph
Raw Report DataKMDW 101053Z 25008KT 9SM FEW030 OVC120 M06/M11 A3051 RMK AO2 SLP350 T10611111
Traffic Incident Summary
Active as of:
Severity:
Category:
InformationThere was an issue retrieving the traffic information for this location. Please try a different location or try again shortly.
Advertisements
Track Severe Weather on mobile